Time;durP1;ratioP1;P1;durP2;ratioP2;P2;SDS_P1;SDS_P2;PMS_P1;PMS_P2;Temp;Humidity;BMP_temperature;BMP_pressure;BME280_temperature;BME280_humidity;BME280_pressure;Samples;Min_cycle;Max_cycle;Signal;HPM_P1;HPM_P2
2021/08/24 00:00:01;;;;;;;0.70;0.43;;;;;;;15.17;51.43;92807.91;4789398;29;20058;-95
2021/08/24 00:02:56;;;;;;;0.68;0.52;;;;;;;15.14;51.27;92803.28;4788107;29;20133;-94
2021/08/24 00:05:52;;;;;;;1.08;0.60;;;;;;;15.20;51.48;92818.66;4796869;29;20108;-93
2021/08/24 00:08:41;;;;;;;0.80;0.55;;;;;;;15.12;51.89;92798.28;4789514;29;20046;-95
2021/08/24 00:11:19;;;;;;;0.85;0.63;;;;;;;15.16;52.18;92812.44;4797452;29;20055;-95
2021/08/24 00:13:59;;;;;;;0.50;0.50;;;;;;;15.11;52.55;92809.94;4787742;29;20055;-94
2021/08/24 00:17:04;;;;;;;0.50;0.50;;;;;;;14.99;52.27;92794.72;4742002;30;20058;-96
2021/08/24 00:19:44;;;;;;;0.75;0.47;;;;;;;14.96;53.03;92794.53;4771819;30;20031;-96
2021/08/24 00:22:29;;;;;;;0.25;0.25;;;;;;;15.02;57.24;92798.59;4788799;29;20146;-95
2021/08/24 00:25:00;;;;;;;0.60;0.60;;;;;;;14.98;57.47;92795.78;4789323;29;20100;-94
2021/08/24 00:27:46;;;;;;;1.15;0.75;;;;;;;15.02;55.93;92801.22;4801475;29;20054;-95
2021/08/24 00:30:24;;;;;;;0.30;0.30;;;;;;;14.99;54.75;92799.19;4772948;30;20410;-95
2021/08/24 00:33:00;;;;;;;0.55;0.40;;;;;;;15.04;54.54;92809.59;4772714;30;20134;-94
2021/08/24 00:35:28;;;;;;;0.52;0.47;;;;;;;14.89;55.36;92802.09;4769821;29;20087;-95
2021/08/24 00:38:11;;;;;;;0.30;0.30;;;;;;;14.90;56.11;92808.91;4775307;30;20039;-94
2021/08/24 00:41:28;;;;;;;;;;;;;;;;;;;;;
2021/08/24 00:44:28;;;;;;;0.65;0.50;;;;;;;14.89;59.67;92818.69;4787470;30;20047;-94
2021/08/24 00:47:04;;;;;;;0.98;0.93;;;;;;;14.80;61.28;92814.47;4754445;30;20542;-94
2021/08/24 00:49:49;;;;;;;0.45;0.45;;;;;;;14.74;61.61;92816.44;4756863;30;20052;-96
2021/08/24 00:52:23;;;;;;;0.93;0.60;;;;;;;14.68;63.38;92807.13;4755289;30;20123;-95
2021/08/24 00:55:01;;;;;;;1.05;0.75;;;;;;;14.68;64.80;92807.91;4769970;30;20052;-95
2021/08/24 00:57:57;;;;;;;1.63;1.00;;;;;;;14.74;69.22;92805.91;4772170;30;20082;-94
2021/08/24 01:00:40;;;;;;;0.82;0.75;;;;;;;14.83;71.84;92813.84;4763422;30;20145;-94
2021/08/24 01:03:27;;;;;;;0.93;0.70;;;;;;;14.84;73.54;92805.66;4773695;30;20517;-94
2021/08/24 01:06:26;;;;;;;1.15;1.05;;;;;;;14.83;73.13;92805.94;4760494;30;20071;-95
2021/08/24 01:09:27;;;;;;;1.33;0.93;;;;;;;14.91;73.51;92818.41;4782000;30;20090;-94
2021/08/24 01:12:09;;;;;;;1.80;0.90;;;;;;;14.93;72.64;92818.88;4780806;29;20060;-95
2021/08/24 01:14:55;;;;;;;0.85;0.77;;;;;;;14.94;73.18;92821.19;4786077;29;20155;-95
2021/08/24 01:18:22;;;;;;;0.93;0.77;;;;;;;14.99;75.48;92807.88;4801663;29;20059;-93
2021/08/24 01:21:27;;;;;;;0.50;0.50;;;;;;;14.97;74.27;92814.53;4772369;29;20047;-94
2021/08/24 01:24:41;;;;;;;;;;;;;;;;;;;;;
2021/08/24 01:27:44;;;;;;;1.77;0.95;;;;;;;14.80;74.09;92798.66;4788598;30;20509;-94
2021/08/24 01:30:39;;;;;;;1.60;1.05;;;;;;;14.83;73.64;92803.31;4779530;29;20058;-94
2021/08/24 01:33:42;;;;;;;1.00;0.73;;;;;;;14.68;73.11;92792.09;4769669;30;20048;-94
2021/08/24 01:36:50;;;;;;;4.05;0.82;;;;;;;14.71;73.16;92809.94;4779681;30;20051;-96
2021/08/24 01:39:59;;;;;;;0.40;0.40;;;;;;;14.58;73.96;92795.00;4769403;30;20076;-95
2021/08/24 01:42:50;;;;;;;0.60;0.57;;;;;;;14.57;72.41;92799.50;4753994;30;20047;-94
2021/08/24 01:48:55;;;;;;;1.15;0.68;;;;;;;14.49;69.50;92805.44;4769323;30;20044;-93
2021/08/24 01:52:09;;;;;;;1.27;0.93;;;;;;;14.38;67.28;92793.63;4771937;30;20475;-95
2021/08/24 01:54:56;;;;;;;0.73;0.45;;;;;;;14.32;66.80;92797.44;4756949;30;20143;-94
2021/08/24 01:57:58;;;;;;;0.30;0.30;;;;;;;14.35;65.72;92800.25;4782489;29;20048;-94
2021/08/24 02:00:41;;;;;;;;;;;;;;;;;;;;;
2021/08/24 02:03:26;;;;;;;;;;;;;;;;;;;;;
2021/08/24 02:06:42;;;;;;;0.30;0.30;;;;;;;14.29;63.76;92805.97;4789986;29;20043;-94
2021/08/24 02:09:49;;;;;;;;;;;;;;;;;;;;;
2021/08/24 02:12:48;;;;;;;0.90;0.73;;;;;;;14.13;63.57;92795.03;4773097;30;20097;-94
2021/08/24 02:15:40;;;;;;;0.50;0.47;;;;;;;14.09;63.15;92794.06;4774847;30;20078;-95
2021/08/24 02:18:31;;;;;;;0.40;0.40;;;;;;;14.10;63.24;92798.25;4789632;29;20066;-94
2021/08/24 02:21:14;;;;;;;0.95;0.85;;;;;;;14.21;64.10;92804.84;4789963;29;20045;-95
2021/08/24 02:24:14;;;;;;;1.27;1.05;;;;;;;14.11;65.05;92794.53;4767394;30;20537;-95
2021/08/24 02:26:57;;;;;;;0.73;0.73;;;;;;;14.02;66.91;92786.59;4766933;30;20047;-94
2021/08/24 02:29:38;;;;;;;;;;;;;;;;;;;;;
2021/08/24 02:32:51;;;;;;;;;;;;;;;;;;;;;
2021/08/24 02:35:37;;;;;;;0.30;0.30;;;;;;;14.00;69.49;92782.69;4766743;30;20536;-94
2021/08/24 02:38:39;;;;;;;0.45;0.45;;;;;;;13.92;71.25;92782.34;4803620;29;20055;-95
2021/08/24 02:41:58;;;;;;;0.50;0.50;;;;;;;13.87;73.75;92777.22;4791721;29;20058;-95
2021/08/24 02:44:46;;;;;;;0.40;0.40;;;;;;;13.83;74.07;92776.25;4774065;30;20055;-94
2021/08/24 02:47:31;;;;;;;;;;;;;;;;;;;;;
2021/08/24 02:51:03;;;;;;;0.73;0.65;;;;;;;13.71;74.65;92768.09;4771539;30;20572;-95
2021/08/24 02:54:28;;;;;;;;;;;;;;;;;;;;;
2021/08/24 02:57:26;;;;;;;1.20;1.10;;;;;;;13.76;76.26;92775.88;4770773;30;20514;-96
2021/08/24 03:00:13;;;;;;;1.17;0.90;;;;;;;13.78;77.29;92771.09;4786259;29;20054;-94
2021/08/24 03:02:50;;;;;;;1.30;0.77;;;;;;;13.75;76.94;92759.31;4787364;29;20113;-94
2021/08/24 03:05:35;;;;;;;;;;;;;;;;;;;;;
2021/08/24 03:08:17;;;;;;;1.08;0.70;;;;;;;13.81;79.46;92759.97;4790557;29;20044;-93
2021/08/24 03:11:00;;;;;;;3.17;1.15;;;;;;;13.91;78.70;92772.09;4789114;30;20043;-94
2021/08/24 03:14:21;;;;;;;0.63;0.60;;;;;;;13.80;78.51;92753.16;4775480;29;20073;-94
2021/08/24 03:17:28;;;;;;;;;;;;;;;;;;;;;
2021/08/24 03:20:18;;;;;;;1.70;0.93;;;;;;;13.76;77.86;92757.47;4789370;29;20105;-94
2021/08/24 03:23:04;;;;;;;2.20;0.82;;;;;;;13.78;77.87;92763.22;4789006;30;20039;-94
2021/08/24 03:25:55;;;;;;;0.55;0.55;;;;;;;13.75;78.27;92766.44;4789897;29;20050;-95
2021/08/24 03:29:06;;;;;;;;;;;;;;;;;;;;;
2021/08/24 03:31:46;;;;;;;0.47;0.47;;;;;;;13.79;77.85;92774.50;4781593;30;20043;-96
2021/08/24 03:34:28;;;;;;;1.25;0.88;;;;;;;13.76;77.38;92762.72;4790479;29;20040;-95
2021/08/24 03:37:50;;;;;;;;;;;;;;;;;;;;;
2021/08/24 03:40:44;;;;;;;1.30;0.93;;;;;;;13.70;79.05;92756.03;4788685;30;20043;-94
2021/08/24 03:43:48;;;;;;;;;;;;;;;;;;;;;
2021/08/24 03:46:29;;;;;;;0.77;0.68;;;;;;;13.83;80.68;92757.81;4790248;29;20043;-94
2021/08/24 03:49:25;;;;;;;;;;;;;;;;;;;;;
2021/08/24 03:52:12;;;;;;;;;;;;;;;;;;;;;
2021/08/24 03:55:19;;;;;;;;;;;;;;;;;;;;;
2021/08/24 03:58:12;;;;;;;0.95;0.60;;;;;;;13.65;76.60;92756.16;4788312;29;20359;-95
2021/08/24 04:00:56;;;;;;;0.77;0.57;;;;;;;13.61;76.01;92755.19;4778484;29;20051;-93
2021/08/24 04:03:32;;;;;;;;;;;;;;;;;;;;;
2021/08/24 04:06:19;;;;;;;1.25;0.90;;;;;;;13.60;77.57;92758.88;4785771;30;20055;-96
2021/08/24 04:09:32;;;;;;;0.47;0.47;;;;;;;13.57;77.58;92749.72;4790892;29;20467;-94
2021/08/24 04:12:27;;;;;;;0.70;0.55;;;;;;;13.66;76.04;92757.69;4775514;30;20055;-94
2021/08/24 04:15:13;;;;;;;0.52;0.52;;;;;;;13.59;73.60;92747.59;4789133;29;20048;-94
2021/08/24 04:18:21;;;;;;;;;;;;;;;;;;;;;
2021/08/24 04:21:18;;;;;;;0.88;0.57;;;;;;;13.57;69.52;92770.78;4790249;29;20043;-94
2021/08/24 04:23:57;;;;;;;0.30;0.30;;;;;;;13.54;67.82;92769.50;4790656;29;20063;-93
2021/08/24 04:26:34;;;;;;;0.93;0.77;;;;;;;13.43;66.89;92755.03;4761895;30;20581;-94
2021/08/24 04:29:28;;;;;;;0.68;0.60;;;;;;;13.38;67.48;92757.78;4775824;30;20051;-94
2021/08/24 04:32:40;;;;;;;;;;;;;;;;;;;;;
2021/08/24 04:35:24;;;;;;;0.63;0.60;;;;;;;13.30;67.35;92750.59;4806911;29;20087;-94
2021/08/24 04:38:04;;;;;;;0.95;0.55;;;;;;;13.28;67.20;92758.00;4763567;30;20088;-93
2021/08/24 04:41:11;;;;;;;;;;;;;;;;;;;;;
2021/08/24 04:47:13;;;;;;;0.75;0.50;;;;;;;13.32;65.42;92754.47;4789995;30;20188;-93
2021/08/24 04:49:56;;;;;;;0.20;0.20;;;;;;;13.37;64.51;92748.31;4805235;29;20114;-92
2021/08/24 04:53:23;;;;;;;0.68;0.43;;;;;;;13.48;62.42;92741.75;4753307;30;20133;-92
2021/08/24 04:56:13;;;;;;;1.42;1.00;;;;;;;13.61;60.07;92757.81;4789871;29;20482;-92
2021/08/24 04:59:36;;;;;;;0.75;0.60;;;;;;;13.72;60.53;92753.88;4757748;30;20518;-92
2021/08/24 05:06:02;;;;;;;1.08;0.73;;;;;;;13.87;60.19;92763.25;4769975;29;20063;-91
2021/08/24 05:08:36;;;;;;;0.85;0.65;;;;;;;13.80;61.43;92741.84;4740569;30;20438;-92
2021/08/24 05:11:04;;;;;;;0.20;0.20;;;;;;;13.83;61.58;92747.31;4739774;30;20466;-92
2021/08/24 05:17:03;;;;;;;0.82;0.68;;;;;;;14.07;61.97;92760.16;4769558;30;20059;-92
2021/08/24 05:19:44;;;;;;;0.80;0.70;;;;;;;14.05;62.22;92749.16;4755315;30;20082;-93
2021/08/24 05:22:35;;;;;;;0.70;0.57;;;;;;;14.11;62.65;92745.28;4717593;30;20158;-93
2021/08/24 05:31:37;;;;;;;0.40;0.40;;;;;;;14.62;61.24;92745.13;4778115;29;20316;-92
2021/08/24 05:34:17;;;;;;;0.50;0.50;;;;;;;14.65;62.12;92741.88;4744812;30;20056;-92
2021/08/24 05:36:45;;;;;;;8.82;1.05;;;;;;;14.75;61.66;92744.25;4775447;30;20510;-92
2021/08/24 05:39:32;;;;;;;0.98;0.82;;;;;;;14.86;61.55;92744.72;4767950;30;20040;-92
2021/08/24 05:41:58;;;;;;;0.50;0.50;;;;;;;14.88;61.08;92732.81;4773250;30;20048;-92
2021/08/24 05:44:26;;;;;;;0.40;0.40;;;;;;;14.97;61.39;92738.09;4767709;30;20052;-92
2021/08/24 05:46:54;;;;;;;0.32;0.32;;;;;;;15.09;61.34;92738.28;4757259;30;20573;-91
2021/08/24 05:49:30;;;;;;;0.40;0.40;;;;;;;15.24;61.26;92734.41;4782310;30;20052;-92
2021/08/24 05:52:14;;;;;;;0.55;0.40;;;;;;;15.44;60.46;92738.31;4773992;30;20056;-93
2021/08/24 05:54:59;;;;;;;1.67;1.02;;;;;;;15.65;58.22;92732.41;4775324;30;20062;-91
2021/08/24 05:57:30;;;;;;;1.75;0.57;;;;;;;15.88;58.07;92741.75;4753321;30;20736;-93
2021/08/24 06:00:14;;;;;;;0.35;0.35;;;;;;;16.08;57.28;92729.00;4775661;30;20048;-92
2021/08/24 06:02:53;;;;;;;0.32;0.32;;;;;;;16.33;56.54;92732.69;4743949;30;20070;-93
2021/08/24 06:05:24;;;;;;;0.68;0.47;;;;;;;16.53;56.64;92723.28;4735242;30;20060;-94
2021/08/24 06:07:57;;;;;;;0.88;0.55;;;;;;;16.83;60.56;92730.16;4754710;30;20488;-92
2021/08/24 06:10:51;;;;;;;2.97;0.85;;;;;;;16.76;64.10;92729.88;4750938;30;20045;-92
2021/08/24 06:13:19;;;;;;;1.80;0.80;;;;;;;17.06;63.56;92732.53;4756412;30;20506;-92
2021/08/24 06:15:50;;;;;;;0.38;0.38;;;;;;;17.19;62.74;92723.59;4754747;30;20044;-92
2021/08/24 06:18:18;;;;;;;0.50;0.50;;;;;;;17.43;61.41;92720.34;4741427;30;20071;-93
2021/08/24 06:20:52;;;;;;;1.38;0.65;;;;;;;17.70;61.58;92710.31;4772150;30;20081;-94
2021/08/24 06:23:43;;;;;;;1.90;0.98;;;;;;;19.18;57.33;92726.50;4767793;30;20051;-95
2021/08/24 06:26:17;;;;;;;1.15;0.80;;;;;;;22.29;48.07;92708.59;4770569;30;20035;-94
2021/08/24 06:28:43;;;;;;;1.27;0.80;;;;;;;24.76;41.77;92711.22;4773390;30;20403;-93
2021/08/24 06:31:16;;;;;;;0.52;0.52;;;;;;;26.10;34.22;92701.75;4746886;30;20064;-94
2021/08/24 06:33:49;;;;;;;0.90;0.75;;;;;;;26.72;35.88;92716.09;4770448;30;20517;-95
2021/08/24 06:36:17;;;;;;;1.92;1.08;;;;;;;26.99;39.06;92721.88;4766459;30;20054;-95
2021/08/24 06:38:46;;;;;;;5.70;1.13;;;;;;;27.72;37.73;92715.28;4775034;30;20039;-96
2021/08/24 06:41:17;;;;;;;1.52;1.10;;;;;;;28.67;35.04;92720.72;4768883;30;20052;-93
2021/08/24 06:43:48;;;;;;;1.02;0.93;;;;;;;30.22;33.18;92709.31;4742298;30;20139;-95
2021/08/24 06:46:29;;;;;;;5.22;1.30;;;;;;;31.50;30.33;92709.44;4770431;30;20478;-95
2021/08/24 06:49:05;;;;;;;1.95;1.45;;;;;;;31.55;29.42;92713.59;4775730;30;20047;-94
2021/08/24 06:51:36;;;;;;;1.33;1.17;;;;;;;30.67;32.15;92719.94;4772040;30;20044;-96
2021/08/24 06:54:20;;;;;;;2.78;1.38;;;;;;;28.67;35.60;92709.19;4774784;30;20048;-95
2021/08/24 06:57:08;;;;;;;1.88;1.30;;;;;;;27.90;36.80;92710.66;4772484;30;20051;-95
2021/08/24 06:59:54;;;;;;;;;;;;;;;;;;;;;
2021/08/24 07:02:34;;;;;;;1.35;0.90;;;;;;;27.17;37.89;92721.88;4762596;30;20133;-94
2021/08/24 07:05:04;;;;;;;1.73;1.13;;;;;;;27.52;38.59;92707.66;4760507;30;20063;-95
2021/08/24 07:07:47;;;;;;;;;;;;;;;;;;;;;
2021/08/24 07:10:51;;;;;;;1.58;1.08;;;;;;;25.28;43.70;92720.06;4730657;30;20047;-94
2021/08/24 07:13:27;;;;;;;2.05;1.02;;;;;;;23.69;47.68;92720.34;4760500;30;20071;-94
2021/08/24 07:15:56;;;;;;;1.58;0.98;;;;;;;22.71;51.21;92713.16;4775358;30;20487;-96
2021/08/24 07:18:24;;;;;;;2.15;1.10;;;;;;;22.07;53.64;92715.44;4769671;30;20071;-93
2021/08/24 07:20:54;;;;;;;2.80;1.10;;;;;;;20.49;58.06;92726.00;4773104;30;20051;-96
2021/08/24 07:23:25;;;;;;;;;;;;;;;20.88;56.77;92728.84;4772011;30;20048;-95
2021/08/24 07:25:51;;;;;;;1.50;1.17;;;;;;;20.43;58.23;92716.72;4775044;30;19922;-95
2021/08/24 07:28:22;;;;;;;0.60;0.50;;;;;;;20.22;59.01;92718.81;4770258;30;20055;-95
2021/08/24 07:31:18;;;;;;;;;;;;;;;;;;;;;
2021/08/24 07:37:31;;;;;;;1.20;0.73;;;;;;;20.61;58.32;92711.09;4764829;30;20124;-95
2021/08/24 07:40:02;;;;;;;1.60;0.95;;;;;;;20.76;56.70;92718.28;4760947;29;20131;-94
2021/08/24 07:42:45;;;;;;;;;;;;;;;;;;;;;
2021/08/24 07:45:28;;;;;;;0.98;0.65;;;;;;;19.86;59.39;92729.28;4757108;30;20052;-94
2021/08/24 07:48:27;;;;;;;;;;;;;;;;;;;;;
2021/08/24 07:51:26;;;;;;;0.73;0.50;;;;;;;19.71;59.83;92714.81;4781202;30;20046;-95
2021/08/24 07:54:14;;;;;;;1.30;1.10;;;;;;;19.49;58.55;92717.97;4771468;29;20297;-95
2021/08/24 07:57:15;;;;;;;0.70;0.55;;;;;;;19.23;58.45;92719.13;4784765;30;20067;-95
2021/08/24 07:59:45;;;;;;;0.60;0.40;;;;;;;19.66;58.15;92727.56;4772206;30;20051;-94
2021/08/24 08:02:40;;;;;;;1.67;1.10;;;;;;;19.20;59.37;92727.72;4772227;30;20081;-95
2021/08/24 08:05:22;;;;;;;0.90;0.73;;;;;;;19.34;57.74;92722.84;4772651;30;20135;-94
2021/08/24 08:07:53;;;;;;;2.67;0.95;;;;;;;19.53;59.94;92721.50;4775307;30;20055;-93
2021/08/24 08:10:38;;;;;;;0.50;0.50;;;;;;;19.65;58.14;92733.97;4774889;30;20482;-94
2021/08/24 08:13:31;;;;;;;1.85;1.17;;;;;;;19.69;58.76;92748.16;4781679;29;20050;-93
2021/08/24 08:16:07;;;;;;;0.35;0.35;;;;;;;19.14;59.64;92723.78;4824277;29;20039;-95
2021/08/24 08:18:44;;;;;;;;;;;;;;;;;;;;;
2021/08/24 08:21:16;;;;;;;0.65;0.60;;;;;;;19.71;56.98;92728.09;4818838;29;20088;-96
2021/08/24 08:23:51;;;;;;;0.52;0.50;;;;;;;19.94;56.95;92741.63;4784565;30;20059;-94
2021/08/24 08:26:17;;;;;;;0.50;0.50;;;;;;;19.87;56.58;92733.47;4785868;30;20051;-94
2021/08/24 08:28:52;;;;;;;1.63;0.95;;;;;;;20.22;54.57;92730.25;4772173;29;20051;-94
2021/08/24 08:31:24;;;;;;;0.30;0.25;;;;;;;20.22;53.51;92740.09;4789210;29;20062;-94
2021/08/24 08:34:10;;;;;;;;;;;;;;;;;;;;;
2021/08/24 08:36:57;;;;;;;0.60;0.60;;;;;;;19.75;55.12;92747.56;4821840;29;20078;-92
2021/08/24 08:39:23;;;;;;;1.08;0.88;;;;;;;20.01;53.93;92748.25;4805134;29;20043;-93
2021/08/24 08:42:11;;;;;;;1.40;0.80;;;;;;;19.60;53.54;92737.63;4821304;29;20035;-93
2021/08/24 08:44:55;;;;;;;0.15;0.15;;;;;;;19.87;52.25;92746.75;4789635;30;20047;-95
2021/08/24 08:47:32;;;;;;;0.50;0.50;;;;;;;20.15;53.61;92754.75;4804366;30;20035;-94
2021/08/24 08:50:25;;;;;;;1.45;0.93;;;;;;;19.92;52.71;92751.81;4791771;30;20098;-94
2021/08/24 08:53:02;;;;;;;1.50;0.70;;;;;;;20.08;52.95;92754.53;4765434;30;20398;-93
2021/08/24 08:55:44;;;;;;;0.30;0.30;;;;;;;20.29;51.22;92751.69;4762731;30;20083;-93
2021/08/24 08:58:32;;;;;;;1.23;0.50;;;;;;;19.97;53.01;92758.78;4757872;30;20048;-94
2021/08/24 09:04:53;;;;;;;0.38;0.38;;;;;;;20.89;50.21;92751.69;4819459;24;20096;-78
2021/08/24 09:07:29;;;;;;;2.30;1.17;;;;;;;21.12;49.06;92751.06;4800544;29;20051;-79
2021/08/24 09:09:55;;;;;;;0.75;0.63;;;;;;;20.85;50.64;92756.16;4796611;29;20150;-79
2021/08/24 09:12:23;;;;;;;0.85;0.57;;;;;;;20.82;50.23;92751.50;4819066;29;20035;-80
2021/08/24 09:14:52;;;;;;;0.65;0.40;;;;;;;21.13;49.08;92755.28;4814936;29;20047;-79
2021/08/24 09:17:32;;;;;;;1.40;1.02;;;;;;;21.15;49.57;92753.06;4814437;29;20497;-79
2021/08/24 09:20:25;;;;;;;0.22;0.22;;;;;;;20.68;51.67;92761.81;4819670;29;20422;-80
2021/08/24 09:22:50;;;;;;;0.40;0.40;;;;;;;20.88;50.20;92749.38;4794630;30;20121;-79
2021/08/24 09:25:22;;;;;;;1.60;0.80;;;;;;;20.86;52.44;92751.59;4775021;29;20054;-78
2021/08/24 09:28:03;;;;;;;0.63;0.55;;;;;;;21.19;51.26;92754.69;4812765;29;20055;-78
2021/08/24 09:30:30;;;;;;;4.45;0.95;;;;;;;21.14;50.74;92754.16;4812370;29;20043;-78
2021/08/24 09:33:05;;;;;;;0.68;0.60;;;;;;;21.15;52.15;92755.72;4797743;29;20038;-78
2021/08/24 09:35:32;;;;;;;0.90;0.63;;;;;;;20.93;52.11;92749.88;4808386;29;20050;-78
2021/08/24 09:38:01;;;;;;;0.77;0.60;;;;;;;20.95;51.33;92750.31;4815328;29;20041;-79
2021/08/24 09:40:46;;;;;;;1.35;0.85;;;;;;;20.76;53.57;92759.00;4815243;29;20106;-79
2021/08/24 09:43:38;;;;;;;0.85;0.70;;;;;;;21.18;50.07;92747.78;4811764;29;20527;-78
2021/08/24 09:46:25;;;;;;;0.95;0.68;;;;;;;20.75;51.62;92754.00;4796828;29;20073;-78
2021/08/24 09:49:07;;;;;;;0.30;0.30;;;;;;;21.10;51.41;92748.00;4815883;29;20111;-78
2021/08/24 09:51:52;;;;;;;1.17;0.90;;;;;;;21.15;49.42;92751.16;4816901;29;20082;-79
2021/08/24 09:54:20;;;;;;;0.98;0.40;;;;;;;21.14;50.23;92746.16;4801541;29;20046;-79
2021/08/24 09:56:52;;;;;;;1.25;0.93;;;;;;;20.93;49.76;92747.22;4789008;30;20439;-79
2021/08/24 09:59:33;;;;;;;1.15;0.65;;;;;;;21.08;48.47;92753.66;4804269;29;20126;-79
2021/08/24 10:01:59;;;;;;;0.82;0.73;;;;;;;21.31;49.91;92740.47;4790588;29;20533;-81
2021/08/24 10:04:25;;;;;;;0.43;0.43;;;;;;;21.30;49.26;92746.16;4814073;29;20066;-79
2021/08/24 10:07:12;;;;;;;1.13;0.80;;;;;;;21.03;47.45;92745.16;4789578;29;20042;-78
2021/08/24 10:09:40;;;;;;;0.98;0.63;;;;;;;21.26;46.48;92746.09;4817654;29;20047;-79
2021/08/24 10:12:22;;;;;;;0.88;0.73;;;;;;;21.82;47.26;92745.78;4817080;29;20622;-78
2021/08/24 10:14:50;;;;;;;0.28;0.28;;;;;;;21.63;43.80;92753.75;4816933;29;20056;-79
2021/08/24 10:17:36;;;;;;;1.85;1.10;;;;;;;20.92;45.52;92748.34;4802502;29;20042;-79
2021/08/24 10:20:25;;;;;;;1.33;0.90;;;;;;;21.37;48.44;92739.09;4830799;29;20065;-78
2021/08/24 10:22:52;;;;;;;0.50;0.50;;;;;;;21.56;47.18;92746.38;4831263;29;20122;-79
2021/08/24 10:25:21;;;;;;;0.40;0.40;;;;;;;21.96;45.50;92752.53;4829218;29;20038;-78
2021/08/24 10:28:11;;;;;;;0.70;0.43;;;;;;;22.09;44.60;92748.59;4828403;29;20050;-79
2021/08/24 10:31:00;;;;;;;0.63;0.60;;;;;;;21.83;45.67;92738.56;4811080;29;20053;-81
2021/08/24 10:33:25;;;;;;;1.05;0.63;;;;;;;21.89;43.53;92750.50;4809675;29;20141;-79
2021/08/24 10:35:56;;;;;;;1.23;0.57;;;;;;;21.68;44.62;92740.16;4810154;29;20042;-80
2021/08/24 10:38:50;;;;;;;1.08;0.70;;;;;;;21.66;45.72;92734.44;4819000;29;20038;-80
2021/08/24 10:41:27;;;;;;;0.98;0.77;;;;;;;22.03;44.72;92742.00;4827526;29;20072;-79
2021/08/24 10:43:58;;;;;;;1.42;0.70;;;;;;;22.68;44.93;92729.88;4818814;29;20046;-80
2021/08/24 10:46:24;;;;;;;0.93;0.60;;;;;;;22.02;40.58;92735.13;4828858;29;20062;-80
2021/08/24 10:48:50;;;;;;;1.65;1.00;;;;;;;22.17;40.74;92742.28;4811947;29;20346;-79
2021/08/24 10:51:26;;;;;;;1.25;0.82;;;;;;;22.13;39.84;92741.44;4827797;29;20038;-80
2021/08/24 10:54:01;;;;;;;1.33;0.82;;;;;;;22.35;41.52;92737.31;4827118;29;20106;-80
2021/08/24 10:56:42;;;;;;;1.52;0.80;;;;;;;22.32;38.24;92731.91;4809148;29;20114;-79
2021/08/24 10:59:11;;;;;;;1.42;0.73;;;;;;;22.44;38.33;92729.06;4809052;29;20049;-80
2021/08/24 11:01:54;;;;;;;0.77;0.63;;;;;;;22.22;40.95;92733.25;4811023;29;20046;-78
2021/08/24 11:04:41;;;;;;;0.90;0.60;;;;;;;22.57;41.32;92733.13;4820978;29;20050;-81
2021/08/24 11:07:48;;;;;;;0.30;0.30;;;;;;;22.80;42.33;92727.78;4805226;29;20091;-80
2021/08/24 11:10:23;;;;;;;0.63;0.60;;;;;;;22.85;41.45;92727.50;4807210;29;20078;-80
2021/08/24 11:13:04;;;;;;;0.77;0.55;;;;;;;23.26;44.49;92730.44;4790720;29;20122;-80
2021/08/24 11:15:45;;;;;;;1.13;0.85;;;;;;;22.58;42.84;92721.31;4797746;29;20058;-79
2021/08/24 11:18:29;;;;;;;0.98;0.68;;;;;;;22.99;45.28;92726.16;4824055;29;20130;-79
2021/08/24 11:21:21;;;;;;;4.22;0.93;;;;;;;22.89;42.30;92722.22;4822530;29;20287;-79
2021/08/24 11:24:12;;;;;;;2.08;0.93;;;;;;;22.98;42.11;92719.31;4819623;29;20042;-81
2021/08/24 11:26:41;;;;;;;1.98;1.10;;;;;;;23.11;41.90;92717.25;4806612;29;20050;-78
2021/08/24 11:29:23;;;;;;;3.25;1.30;;;;;;;23.23;42.91;92714.38;4822125;29;20046;-81
2021/08/24 11:32:10;;;;;;;6.80;1.38;;;;;;;23.22;43.36;92720.84;4806179;29;20046;-78
2021/08/24 11:34:50;;;;;;;1.17;0.75;;;;;;;22.82;40.36;92722.09;4811968;29;20058;-81
2021/08/24 11:37:20;;;;;;;2.95;1.25;;;;;;;23.38;41.85;92716.13;4807806;29;20505;-79
2021/08/24 11:39:52;;;;;;;0.85;0.60;;;;;;;23.61;39.42;92718.69;4823940;29;20093;-79
2021/08/24 11:42:26;;;;;;;;;;;;;;;22.85;40.73;92716.84;4807724;29;20621;-79
2021/08/24 11:44:55;;;;;;;0.65;0.60;;;;;;;23.20;40.78;92725.78;4793756;29;19924;-79
2021/08/24 11:47:42;;;;;;;0.80;0.75;;;;;;;23.03;40.50;92719.81;4804240;29;20087;-79
2021/08/24 11:50:19;;;;;;;1.15;0.77;;;;;;;23.37;39.79;92717.25;4804882;29;20155;-79
2021/08/24 11:52:55;;;;;;;1.95;1.20;;;;;;;23.61;40.24;92717.94;4804981;29;20114;-79
2021/08/24 11:55:24;;;;;;;1.50;0.90;;;;;;;23.39;39.35;92717.63;4804375;29;20586;-80
2021/08/24 11:58:10;;;;;;;0.98;0.50;;;;;;;23.28;41.01;92722.06;4822666;29;20038;-79
2021/08/24 12:00:38;;;;;;;1.25;0.80;;;;;;;23.93;41.01;92712.25;4806867;29;20057;-80
2021/08/24 12:03:13;;;;;;;1.20;0.75;;;;;;;23.91;36.51;92715.28;4804473;29;20065;-79
2021/08/24 12:05:51;;;;;;;1.10;0.70;;;;;;;24.02;38.32;92720.75;4823565;29;20462;-77
2021/08/24 12:08:22;;;;;;;0.60;0.57;;;;;;;23.76;37.88;92714.34;4788672;29;20050;-79
2021/08/24 12:10:50;;;;;;;1.08;0.68;;;;;;;23.17;37.38;92705.91;4789066;29;20082;-79
2021/08/24 12:13:30;;;;;;;0.82;0.60;;;;;;;23.18;38.10;92704.00;4788404;29;20560;-79
2021/08/24 12:16:11;;;;;;;0.60;0.60;;;;;;;23.68;39.42;92702.75;4799286;29;20050;-77
2021/08/24 12:18:37;;;;;;;1.25;0.73;;;;;;;23.88;37.04;92706.09;4806657;29;20057;-78
2021/08/24 12:21:37;;;;;;;1.10;0.88;;;;;;;23.53;37.71;92702.94;4824625;29;20050;-80
2021/08/24 12:24:24;;;;;;;1.38;0.82;;;;;;;23.77;37.70;92702.53;4823750;29;20042;-80
2021/08/24 12:26:56;;;;;;;0.75;0.63;;;;;;;23.44;38.05;92698.66;4823643;29;20084;-80
2021/08/24 12:29:36;;;;;;;0.75;0.65;;;;;;;23.46;37.81;92701.72;4808591;29;20061;-81
2021/08/24 12:32:25;;;;;;;1.73;1.10;;;;;;;23.38;37.13;92692.06;4806172;29;20058;-79
2021/08/24 12:34:53;;;;;;;0.95;0.70;;;;;;;22.86;38.18;92693.56;4772521;29;20094;-79
2021/08/24 12:37:18;;;;;;;0.90;0.60;;;;;;;23.31;37.18;92691.97;4789347;29;20472;-80
2021/08/24 12:39:50;;;;;;;1.30;0.95;;;;;;;23.65;38.21;92692.81;4804237;29;20407;-80
2021/08/24 12:42:30;;;;;;;1.00;0.75;;;;;;;23.71;38.30;92687.94;4822603;29;20046;-80
2021/08/24 12:44:58;;;;;;;1.35;0.85;;;;;;;24.08;37.77;92679.97;4824191;29;20058;-80
2021/08/24 12:47:30;;;;;;;0.40;0.40;;;;;;;23.95;39.18;92688.59;4807722;29;20143;-80
2021/08/24 12:49:58;;;;;;;0.93;0.85;;;;;;;24.03;38.84;92684.88;4824368;29;20100;-79
2021/08/24 12:52:44;;;;;;;0.70;0.70;;;;;;;24.27;36.41;92680.91;4822451;29;20099;-80
2021/08/24 12:55:31;;;;;;;1.13;0.75;;;;;;;24.08;34.94;92684.56;4807770;29;20043;-79
2021/08/24 12:58:22;;;;;;;1.40;0.85;;;;;;;24.52;37.39;92673.19;4821750;29;20050;-80
2021/08/24 13:01:12;;;;;;;0.65;0.57;;;;;;;24.60;36.89;92668.66;4824077;29;20425;-80
2021/08/24 13:03:51;;;;;;;3.55;1.02;;;;;;;24.36;37.15;92665.34;4820654;29;20402;-79
2021/08/24 13:06:20;;;;;;;0.73;0.60;;;;;;;23.96;34.02;92679.44;4807772;29;20057;-80
2021/08/24 13:08:49;;;;;;;2.25;0.98;;;;;;;24.22;34.59;92670.56;4823587;29;20048;-79
2021/08/24 13:11:24;;;;;;;1.27;0.90;;;;;;;23.45;38.20;92673.47;4824057;29;20078;-80
2021/08/24 13:13:54;;;;;;;1.08;0.75;;;;;;;23.07;39.52;92664.56;4807974;29;20046;-79
2021/08/24 13:16:25;;;;;;;1.83;1.00;;;;;;;23.48;40.01;92666.63;4806897;29;20482;-81
2021/08/24 13:18:55;;;;;;;0.93;0.77;;;;;;;23.63;39.16;92663.00;4823790;29;20053;-80
2021/08/24 13:21:36;;;;;;;1.30;0.88;;;;;;;23.82;39.08;92664.00;4824309;29;20098;-80
2021/08/24 13:24:08;;;;;;;0.77;0.60;;;;;;;23.97;39.49;92659.59;4792315;29;20051;-78
2021/08/24 13:26:54;;;;;;;1.35;0.90;;;;;;;23.99;38.01;92663.44;4821790;29;20528;-81
2021/08/24 13:29:24;;;;;;;3.45;0.80;;;;;;;24.20;38.13;92654.09;4810982;29;20366;-80
2021/08/24 13:32:22;;;;;;;0.55;0.50;;;;;;;24.05;40.96;92658.56;4806686;29;20110;-80
2021/08/24 13:34:52;;;;;;;1.52;0.90;;;;;;;24.15;39.93;92652.53;4765483;29;20073;-80
2021/08/24 13:37:37;;;;;;;1.33;0.60;;;;;;;23.77;39.70;92661.66;4789817;29;20051;-80
2021/08/24 13:40:06;;;;;;;0.60;0.60;;;;;;;23.94;40.00;92660.34;4813972;29;20125;-80
2021/08/24 13:42:37;;;;;;;0.68;0.68;;;;;;;23.71;40.23;92661.19;4824433;29;20057;-80
2021/08/24 13:45:04;;;;;;;1.83;0.90;;;;;;;23.92;39.48;92662.59;4827018;29;20050;-80
2021/08/24 13:47:29;;;;;;;1.17;0.88;;;;;;;23.65;40.81;92662.66;4810959;29;20046;-80
2021/08/24 13:49:58;;;;;;;1.45;1.05;;;;;;;23.61;40.68;92659.94;4810709;29;20058;-80
2021/08/24 13:52:36;;;;;;;0.50;0.50;;;;;;;23.95;38.84;92654.63;4810575;29;20045;-80